Time;durP1;ratioP1;P1;durP2;ratioP2;P2;SDS_P1;SDS_P2;PMS_P1;PMS_P2;Temp;Humidity;BMP_temperature;BMP_pressure;BME280_temperature;BME280_humidity;BME280_pressure;Samples;Min_cycle;Max_cycle;Signal;HPM_P1;HPM_P2
2023/01/20 00:02:09;;;;;;;1.05;0.75;;;7.10;90.60;;;;;;6339068;22;20082;-80
2023/01/20 00:04:34;;;;;;;1.50;0.98;;;7.10;90.90;;;;;;6339271;22;20022;-79
2023/01/20 00:07:00;;;;;;;0.93;0.60;;;7.10;90.80;;;;;;6338432;22;20005;-80
2023/01/20 00:09:26;;;;;;;0.80;0.52;;;7.10;90.40;;;;;;6339274;22;20405;-80
2023/01/20 00:11:51;;;;;;;1.00;0.68;;;7.10;90.60;;;;;;6338982;22;20057;-80
2023/01/20 00:14:17;;;;;;;1.00;0.80;;;7.10;90.60;;;;;;6339170;22;19999;-80
2023/01/20 00:16:43;;;;;;;1.38;0.98;;;7.10;90.50;;;;;;6338494;22;20006;-80
2023/01/20 00:19:12;;;;;;;0.98;0.90;;;7.10;90.50;;;;;;6339153;22;20371;-80
2023/01/20 00:21:38;;;;;;;0.80;0.80;;;7.10;90.10;;;;;;6339395;22;20332;-79
2023/01/20 00:24:04;;;;;;;0.68;0.60;;;7.20;90.30;;;;;;6338779;22;19999;-81
2023/01/20 00:26:29;;;;;;;1.38;0.70;;;7.20;90.30;;;;;;6337779;22;20009;-81
2023/01/20 00:28:58;;;;;;;0.50;0.50;;;7.20;90.30;;;;;;6338661;22;20002;-81
2023/01/20 00:31:29;;;;;;;0.70;0.70;;;7.10;89.80;;;;;;6338033;22;20025;-81
2023/01/20 00:33:58;;;;;;;1.08;0.70;;;7.10;90.10;;;;;;6338617;22;20060;-81
2023/01/20 00:36:25;;;;;;;0.65;0.57;;;7.10;89.50;;;;;;6339018;22;20001;-81
2023/01/20 00:38:51;;;;;;;1.42;0.90;;;7.20;89.90;;;;;;6338529;22;19999;-81
2023/01/20 00:41:17;;;;;;;0.77;0.70;;;7.20;89.60;;;;;;6338733;22;20003;-80
2023/01/20 00:43:43;;;;;;;0.65;0.65;;;7.20;89.70;;;;;;6338876;22;20417;-80
2023/01/20 00:46:10;;;;;;;0.80;0.80;;;7.20;89.60;;;;;;6338534;22;20014;-80
2023/01/20 00:48:36;;;;;;;1.17;0.93;;;7.20;89.50;;;;;;6339095;22;20006;-80
2023/01/20 00:51:02;;;;;;;1.05;0.60;;;7.20;89.50;;;;;;6310046;22;20014;-80
2023/01/20 00:53:28;;;;;;;1.05;0.95;;;7.20;89.30;;;;;;6338574;22;20092;-80
2023/01/20 00:55:54;;;;;;;1.80;0.80;;;7.20;88.70;;;;;;6338459;22;20000;-79
2023/01/20 00:58:20;;;;;;;0.80;0.60;;;7.10;89.20;;;;;;6338928;22;19995;-79
2023/01/20 01:00:47;;;;;;;1.10;0.98;;;7.10;89.70;;;;;;6338550;22;20029;-80
2023/01/20 01:03:13;;;;;;;1.00;0.90;;;7.10;89.50;;;;;;6338234;22;20052;-80
2023/01/20 01:05:38;;;;;;;0.70;0.70;;;7.10;89.90;;;;;;6338551;22;20002;-80
2023/01/20 01:08:04;;;;;;;0.80;0.77;;;7.10;88.40;;;;;;6338516;22;20003;-80
2023/01/20 01:10:30;;;;;;;1.05;0.90;;;7.10;89.30;;;;;;6338494;22;20352;-80
2023/01/20 01:13:01;;;;;;;0.77;0.70;;;7.10;88.60;;;;;;6338690;22;20041;-80
2023/01/20 01:15:28;;;;;;;1.48;0.88;;;7.10;89.30;;;;;;6338550;22;20003;-80
2023/01/20 01:17:55;;;;;;;3.50;0.82;;;7.10;89.10;;;;;;6338456;22;20073;-80
2023/01/20 01:20:21;;;;;;;0.55;0.55;;;6.90;89.80;;;;;;6310511;22;20341;-79
2023/01/20 01:22:47;;;;;;;1.10;0.80;;;6.90;90.10;;;;;;6338335;22;20003;-79
2023/01/20 01:25:12;;;;;;;1.05;0.90;;;6.90;90.10;;;;;;6338628;22;20017;-79
2023/01/20 01:27:38;;;;;;;1.75;1.25;;;6.90;90.20;;;;;;6338639;22;19999;-79
2023/01/20 01:30:04;;;;;;;1.42;1.00;;;6.90;90.20;;;;;;6338465;22;19999;-79
2023/01/20 01:32:30;;;;;;;1.63;0.85;;;7.00;90.30;;;;;;6337867;22;20440;-80
2023/01/20 01:34:56;;;;;;;1.10;0.80;;;7.00;90.30;;;;;;6338293;22;20011;-80
2023/01/20 01:37:22;;;;;;;0.80;0.80;;;7.10;90.50;;;;;;6339138;22;20002;-80
2023/01/20 01:39:47;;;;;;;1.70;1.13;;;7.10;90.70;;;;;;6340969;22;19999;-79
2023/01/20 01:42:16;;;;;;;1.52;1.00;;;7.10;90.80;;;;;;6340609;22;20006;-80
2023/01/20 01:45:09;;;;;;;1.00;0.90;;;7.20;90.80;;;;;;6341013;22;20003;-80
2023/01/20 01:47:37;;;;;;;1.25;1.00;;;7.20;90.60;;;;;;6340094;22;20022;-80
2023/01/20 01:50:04;;;;;;;2.15;1.10;;;7.20;90.60;;;;;;6339829;22;20282;-80
2023/01/20 01:52:31;;;;;;;2.97;1.83;;;7.20;90.30;;;;;;6340231;22;19999;-80
2023/01/20 01:54:58;;;;;;;1.48;1.05;;;7.10;90.10;;;;;;6340586;22;20006;-80
2023/01/20 01:57:24;;;;;;;2.30;1.38;;;7.10;90.30;;;;;;6340282;22;20003;-80
2023/01/20 01:59:52;;;;;;;1.77;1.15;;;7.10;89.80;;;;;;6340601;22;20026;-80
2023/01/20 02:02:18;;;;;;;1.70;1.25;;;7.10;90.10;;;;;;6339518;22;20420;-80
2023/01/20 02:04:44;;;;;;;0.80;0.80;;;7.10;90.20;;;;;;6340572;22;20006;-80
2023/01/20 02:07:14;;;;;;;2.25;1.27;;;7.20;90.20;;;;;;6339653;22;19999;-80
2023/01/20 02:09:40;;;;;;;;;;;7.20;90.20;;;;;;6340490;22;19998;-80
2023/01/20 02:12:11;;;;;;;1.38;1.20;;;7.20;90.00;;;;;;6312107;22;20262;-80
2023/01/20 02:14:40;;;;;;;1.88;1.38;;;7.20;89.60;;;;;;6340481;22;20051;-80
2023/01/20 02:17:06;;;;;;;1.53;1.03;;;7.20;89.90;;;;;;6339200;22;20036;-80
2023/01/20 02:19:56;;;;;;;1.00;0.90;;;7.20;89.70;;;;;;6339765;22;19998;-80
2023/01/20 02:22:39;;;;;;;1.70;1.30;;;7.20;89.80;;;;;;6339708;22;20086;-80
2023/01/20 02:25:29;;;;;;;1.35;1.20;;;7.20;89.70;;;;;;6339911;22;19999;-80
2023/01/20 02:28:25;;;;;;;2.95;1.50;;;7.20;88.80;;;;;;6339748;22;20433;-81
2023/01/20 02:31:10;;;;;;;1.55;1.30;;;7.20;88.80;;;;;;6339573;22;20581;-81
2023/01/20 02:33:45;;;;;;;1.20;1.02;;;7.20;88.40;;;;;;6339725;22;20460;-80
2023/01/20 02:36:21;;;;;;;1.02;0.90;;;7.20;88.30;;;;;;6339932;22;20045;-79
2023/01/20 02:38:49;;;;;;;1.85;1.13;;;7.10;87.90;;;;;;6339732;22;19998;-80
2023/01/20 02:41:27;;;;;;;1.25;1.05;;;7.10;88.30;;;;;;6339802;22;20037;-80
2023/01/20 02:44:24;;;;;;;1.70;0.90;;;7.10;87.60;;;;;;6340084;22;20287;-80
2023/01/20 02:47:01;;;;;;;1.88;1.20;;;7.10;88.10;;;;;;6339475;22;20073;-80
2023/01/20 02:49:44;;;;;;;1.77;1.25;;;7.00;87.00;;;;;;6339156;22;20003;-81
2023/01/20 02:52:24;;;;;;;1.40;1.13;;;7.00;87.90;;;;;;6339411;22;19999;-81
2023/01/20 02:54:54;;;;;;;1.70;1.20;;;7.10;88.00;;;;;;6340358;22;20029;-81
2023/01/20 02:57:31;;;;;;;1.60;1.27;;;7.00;87.20;;;;;;6339675;22;20002;-81
2023/01/20 03:00:05;;;;;;;1.58;1.02;;;7.00;87.90;;;;;;6339870;22;20295;-82
2023/01/20 03:02:33;;;;;;;1.30;1.02;;;7.00;88.40;;;;;;6339067;22;20006;-81
2023/01/20 03:05:16;;;;;;;2.40;1.50;;;6.90;87.50;;;;;;6339651;22;20002;-81
2023/01/20 03:07:44;;;;;;;1.35;1.20;;;6.90;87.90;;;;;;6339598;22;20014;-81
2023/01/20 03:10:15;;;;;;;2.45;1.17;;;6.90;88.00;;;;;;6339927;22;20007;-82
2023/01/20 03:12:48;;;;;;;1.10;1.00;;;6.90;87.70;;;;;;6339433;22;20019;-81
2023/01/20 03:15:16;;;;;;;1.55;1.42;;;6.90;87.70;;;;;;6338243;22;20346;-81
2023/01/20 03:17:42;;;;;;;1.35;1.10;;;6.90;88.20;;;;;;6339337;22;20025;-82
2023/01/20 03:20:08;;;;;;;1.40;1.27;;;7.00;88.30;;;;;;6339772;22;19999;-81
2023/01/20 03:22:34;;;;;;;1.75;1.30;;;7.00;87.70;;;;;;6339161;22;20010;-82
2023/01/20 03:25:00;;;;;;;2.85;1.17;;;7.00;88.20;;;;;;6339876;22;20030;-83
2023/01/20 03:27:26;;;;;;;1.40;1.05;;;7.10;88.10;;;;;;6338982;22;20055;-82
2023/01/20 03:29:52;;;;;;;1.15;1.05;;;7.00;87.70;;;;;;6339057;22;20003;-80
2023/01/20 03:32:24;;;;;;;1.63;1.30;;;7.00;87.40;;;;;;6339691;22;20386;-80
2023/01/20 03:34:52;;;;;;;1.70;1.33;;;7.00;87.80;;;;;;6339212;22;20019;-80
2023/01/20 03:37:17;;;;;;;1.33;1.10;;;7.10;88.20;;;;;;6339580;22;20467;-82
2023/01/20 03:39:44;;;;;;;1.38;1.10;;;7.10;88.20;;;;;;6339023;22;19997;-82
2023/01/20 03:42:21;;;;;;;2.15;1.40;;;7.20;88.00;;;;;;6338706;22;19999;-80
2023/01/20 03:45:06;;;;;;;1.10;1.00;;;7.20;87.10;;;;;;6311374;22;20014;-80
2023/01/20 03:47:56;;;;;;;2.20;1.40;;;7.20;87.40;;;;;;6338927;22;20070;-80
2023/01/20 03:50:24;;;;;;;;;;;7.20;86.60;;;;;;6337602;22;20036;-79
2023/01/20 03:53:15;;;;;;;2.65;1.10;;;7.20;85.70;;;;;;6338183;22;20309;-79
2023/01/20 03:55:45;;;;;;;1.73;1.20;;;7.20;86.70;;;;;;6294649;22;20420;-80
2023/01/20 03:58:15;;;;;;;1.50;0.90;;;7.10;84.20;;;;;;6339045;22;19999;-79
2023/01/20 04:00:45;;;;;;;1.58;1.02;;;7.10;85.60;;;;;;6338053;22;20011;-79
2023/01/20 04:03:42;;;;;;;1.10;1.00;;;7.10;85.70;;;;;;6339359;22;20003;-78
2023/01/20 04:06:11;;;;;;;1.38;1.08;;;7.10;85.10;;;;;;6337825;22;20034;-78
2023/01/20 04:08:42;;;;;;;2.15;1.50;;;7.10;85.30;;;;;;6339229;22;20026;-77
2023/01/20 04:11:09;;;;;;;2.22;1.50;;;7.10;85.20;;;;;;6338825;22;20002;-77
2023/01/20 04:13:35;;;;;;;1.70;1.35;;;7.20;84.70;;;;;;6338805;22;20024;-79
2023/01/20 04:16:02;;;;;;;1.55;1.17;;;7.10;83.90;;;;;;6338738;22;19999;-77
2023/01/20 04:18:28;;;;;;;1.88;1.10;;;7.00;83.80;;;;;;6339280;22;19991;-78
2023/01/20 04:20:59;;;;;;;1.27;1.15;;;7.10;84.50;;;;;;6338587;22;20496;-79
2023/01/20 04:23:35;;;;;;;1.98;1.60;;;7.10;84.60;;;;;;6339340;22;20078;-79
2023/01/20 04:26:01;;;;;;;1.92;1.50;;;7.10;83.60;;;;;;6338472;22;20414;-79
2023/01/20 04:28:27;;;;;;;3.38;1.45;;;7.10;84.10;;;;;;6311193;22;20003;-80
2023/01/20 04:30:52;;;;;;;1.77;1.27;;;7.10;84.10;;;;;;6338089;22;20009;-79
2023/01/20 04:33:18;;;;;;;1.67;1.40;;;7.00;83.70;;;;;;6338554;22;20043;-80
2023/01/20 04:35:44;;;;;;;1.67;1.05;;;7.00;83.50;;;;;;6338875;22;20003;-80
2023/01/20 04:38:10;;;;;;;1.40;1.23;;;6.90;83.10;;;;;;6338319;22;19999;-81
2023/01/20 04:40:35;;;;;;;1.67;1.10;;;6.90;83.70;;;;;;6338940;22;20151;-81
2023/01/20 04:43:01;;;;;;;2.25;1.50;;;6.90;83.40;;;;;;6339012;22;20416;-81
2023/01/20 04:45:27;;;;;;;1.42;1.10;;;6.90;83.10;;;;;;6338644;22;20048;-80
2023/01/20 04:47:52;;;;;;;1.73;1.10;;;6.90;83.00;;;;;;6339038;22;20010;-80
2023/01/20 04:50:18;;;;;;;1.10;1.00;;;6.80;82.80;;;;;;6310788;22;20011;-82
2023/01/20 04:52:44;;;;;;;1.58;1.30;;;6.80;81.70;;;;;;6339105;22;20007;-82
2023/01/20 04:55:10;;;;;;;1.63;1.50;;;6.80;82.20;;;;;;6338790;22;20070;-81
2023/01/20 04:57:36;;;;;;;1.23;1.10;;;6.80;82.00;;;;;;6338471;22;20002;-81
2023/01/20 05:00:04;;;;;;;1.23;1.13;;;6.80;82.20;;;;;;6338368;22;19999;-82
2023/01/20 05:02:29;;;;;;;1.35;1.13;;;6.80;82.70;;;;;;6338568;22;19999;-82
2023/01/20 05:04:55;;;;;;;1.65;1.33;;;6.80;83.20;;;;;;6338616;22;20005;-80
2023/01/20 05:07:21;;;;;;;1.70;1.30;;;6.90;83.30;;;;;;6338826;22;20363;-80
2023/01/20 05:09:47;;;;;;;1.83;1.38;;;6.90;83.40;;;;;;6338435;22;20006;-80
2023/01/20 05:12:12;;;;;;;1.40;1.30;;;6.90;83.50;;;;;;6337644;22;20121;-80
2023/01/20 05:14:38;;;;;;;1.98;1.30;;;6.90;83.70;;;;;;6337469;22;20373;-80
2023/01/20 05:17:03;;;;;;;1.33;1.17;;;6.90;83.90;;;;;;6338831;22;19998;-80
2023/01/20 05:19:29;;;;;;;1.60;1.13;;;6.90;84.10;;;;;;6339418;22;20006;-80
2023/01/20 05:21:55;;;;;;;2.08;1.45;;;6.90;84.20;;;;;;6338163;22;20014;-81
2023/01/20 05:24:21;;;;;;;2.38;1.45;;;6.80;83.60;;;;;;6337704;22;20007;-82
2023/01/20 05:26:46;;;;;;;2.17;1.15;;;6.80;83.70;;;;;;6338078;22;20007;-81
2023/01/20 05:29:12;;;;;;;1.27;1.15;;;6.70;84.10;;;;;;6339142;22;20009;-81
2023/01/20 05:31:41;;;;;;;2.55;1.95;;;6.70;84.30;;;;;;6338347;22;20044;-81
2023/01/20 05:34:08;;;;;;;1.67;1.33;;;6.60;84.40;;;;;;6310985;22;20333;-81
2023/01/20 05:36:34;;;;;;;1.25;1.15;;;6.60;84.40;;;;;;6309857;22;20078;-81
2023/01/20 05:38:59;;;;;;;2.88;1.63;;;7.70;85.30;;;;;;6338729;22;20032;-81
2023/01/20 05:41:25;;;;;;;2.13;1.45;;;6.60;84.60;;;;;;6338797;22;20048;-80
2023/01/20 05:43:54;;;;;;;1.55;1.40;;;6.60;84.60;;;;;;6338416;22;20007;-80
2023/01/20 05:46:20;;;;;;;2.13;1.23;;;6.60;84.50;;;;;;6337975;22;20026;-78
2023/01/20 05:48:46;;;;;;;1.98;1.48;;;6.70;84.70;;;;;;6338009;22;20002;-80
2023/01/20 05:51:11;;;;;;;1.95;1.52;;;6.70;84.80;;;;;;6337665;22;20378;-80
2023/01/20 05:53:37;;;;;;;1.52;1.23;;;6.70;84.60;;;;;;6338545;22;19995;-81
2023/01/20 05:56:04;;;;;;;1.33;1.23;;;6.70;84.50;;;;;;6337986;22;19995;-80
2023/01/20 05:58:31;;;;;;;2.72;1.70;;;6.70;84.30;;;;;;6338289;22;20452;-80
2023/01/20 06:01:23;;;;;;;1.90;1.40;;;6.70;83.90;;;;;;6338160;22;20003;-79
2023/01/20 06:03:49;;;;;;;3.33;1.65;;;6.70;84.50;;;;;;6333705;22;20029;-79
2023/01/20 06:06:17;;;;;;;1.60;1.35;;;6.60;84.20;;;;;;6338345;22;20397;-79
2023/01/20 06:08:43;;;;;;;1.75;1.30;;;6.50;84.60;;;;;;6337861;22;20077;-79
2023/01/20 06:11:10;;;;;;;1.98;1.55;;;6.60;84.70;;;;;;6337673;22;19999;-80
2023/01/20 06:13:38;;;;;;;1.67;1.48;;;6.60;84.80;;;;;;6310154;22;20455;-80
2023/01/20 06:16:04;;;;;;;2.25;1.58;;;6.70;85.20;;;;;;6310631;22;20416;-81
2023/01/20 06:18:30;;;;;;;1.90;1.38;;;6.70;85.40;;;;;;6336571;22;20180;-81
2023/01/20 06:20:57;;;;;;;2.53;1.50;;;6.70;84.80;;;;;;6337504;22;20093;-81
2023/01/20 06:23:23;;;;;;;1.40;1.15;;;6.70;85.30;;;;;;6311072;22;20034;-82
2023/01/20 06:26:04;;;;;;;1.80;1.40;;;6.70;85.20;;;;;;6339390;22;20048;-81
2023/01/20 06:28:31;;;;;;;1.63;1.13;;;6.80;85.20;;;;;;6338570;22;20003;-81
2023/01/20 06:31:02;;;;;;;2.05;1.42;;;6.80;84.10;;;;;;6338737;22;20027;-79
2023/01/20 06:33:28;;;;;;;1.40;1.20;;;6.80;84.60;;;;;;6338380;22;19999;-80
2023/01/20 06:35:55;;;;;;;1.77;1.20;;;6.80;83.80;;;;;;6336671;22;19999;-80
2023/01/20 06:38:28;;;;;;;1.15;1.02;;;6.80;83.50;;;;;;6337880;22;20047;-80
2023/01/20 06:41:04;;;;;;;1.25;0.90;;;6.80;87.30;;;;;;6338842;22;20002;-84
2023/01/20 06:43:32;;;;;;;1.23;0.93;;;6.80;86.40;;;;;;6339060;22;19999;-83
2023/01/20 06:46:06;;;;;;;1.02;0.85;;;6.80;84.30;;;;;;6339678;22;20320;-83
2023/01/20 06:48:33;;;;;;;1.52;1.05;;;6.90;83.90;;;;;;6338459;22;20002;-85
2023/01/20 06:51:04;;;;;;;1.92;1.27;;;6.90;83.90;;;;;;6339224;22;20425;-87
2023/01/20 06:53:29;;;;;;;1.27;0.88;;;6.90;83.70;;;;;;6310921;22;20007;-85
2023/01/20 06:55:57;;;;;;;1.65;1.10;;;6.90;84.60;;;;;;6337858;22;20006;-80
2023/01/20 06:58:24;;;;;;;1.65;1.00;;;7.00;84.00;;;;;;6339503;22;20048;-85
2023/01/20 07:00:51;;;;;;;4.55;1.35;;;7.10;84.10;;;;;;6339459;22;20010;-84
2023/01/20 07:03:16;;;;;;;1.00;0.90;;;7.00;82.20;;;;;;6339576;22;20006;-83
2023/01/20 07:05:42;;;;;;;1.50;1.05;;;6.90;82.90;;;;;;6339030;22;20419;-77
2023/01/20 07:08:08;;;;;;;1.60;0.98;;;7.00;82.30;;;;;;6311944;22;20068;-79
2023/01/20 07:10:34;;;;;;;1.30;1.00;;;6.90;82.10;;;;;;6339675;22;20006;-78
2023/01/20 07:13:00;;;;;;;1.75;1.10;;;7.00;82.80;;;;;;6339814;22;20408;-78
2023/01/20 07:15:25;;;;;;;0.95;0.90;;;7.00;82.20;;;;;;6311742;22;19999;-78
2023/01/20 07:17:51;;;;;;;1.88;1.08;;;7.00;82.30;;;;;;6339836;22;19999;-78
2023/01/20 07:20:17;;;;;;;1.88;1.20;;;7.10;82.60;;;;;;6339324;22;20081;-78
2023/01/20 07:22:42;;;;;;;1.63;1.27;;;7.00;82.80;;;;;;6339706;22;20006;-78
2023/01/20 07:25:09;;;;;;;1.25;1.00;;;;;;;;;;6338783;22;20621;-78
2023/01/20 07:27:35;;;;;;;1.90;1.27;;;7.10;83.20;;;;;;6312295;22;20007;-77
2023/01/20 07:30:01;;;;;;;1.20;0.85;;;7.10;82.50;;;;;;6339078;22;20333;-79
2023/01/20 07:32:30;;;;;;;1.33;1.10;;;7.10;83.10;;;;;;6339086;22;19999;-81
2023/01/20 07:34:55;;;;;;;1.38;0.95;;;7.00;81.20;;;;;;6335546;22;20023;-75
2023/01/20 07:37:21;;;;;;;2.38;1.30;;;7.00;82.40;;;;;;6339561;22;20410;-76
2023/01/20 07:39:47;;;;;;;1.45;1.13;;;6.90;81.80;;;;;;6339899;22;20424;-76
2023/01/20 07:42:12;;;;;;;2.22;1.27;;;6.90;82.30;;;;;;6339393;22;19999;-76
2023/01/20 07:44:38;;;;;;;1.55;1.08;;;7.00;82.50;;;;;;6338525;22;20018;-76
2023/01/20 07:47:03;;;;;;;1.60;0.93;;;7.10;82.30;;;;;;6339121;22;20050;-77
2023/01/20 07:49:29;;;;;;;1.77;1.25;;;7.10;82.00;;;;;;6339595;22;19999;-76
2023/01/20 07:51:55;;;;;;;1.80;1.13;;;7.10;82.00;;;;;;6339119;22;19999;-76
2023/01/20 07:54:20;;;;;;;2.25;1.27;;;7.10;81.90;;;;;;6338862;22;20066;-76
2023/01/20 07:56:47;;;;;;;2.63;1.33;;;7.10;82.00;;;;;;6339432;22;20048;-76
2023/01/20 07:59:12;;;;;;;2.47;1.70;;;7.20;82.00;;;;;;6339976;22;20364;-76
2023/01/20 08:01:38;;;;;;;2.28;1.52;;;7.20;82.20;;;;;;6339031;22;20026;-76
2023/01/20 08:04:04;;;;;;;1.80;1.40;;;7.20;81.10;;;;;;6338247;22;20026;-81
2023/01/20 08:06:30;;;;;;;1.27;1.00;;;7.20;81.00;;;;;;6338608;22;19995;-82
2023/01/20 08:09:00;;;;;;;2.10;1.63;;;7.10;81.00;;;;;;6311711;22;20399;-82
2023/01/20 08:11:26;;;;;;;2.70;1.58;;;7.10;81.70;;;;;;6339473;22;20429;-82
2023/01/20 08:13:52;;;;;;;1.63;1.38;;;7.10;81.60;;;;;;6311508;22;20003;-82
2023/01/20 08:16:18;;;;;;;3.35;1.73;;;7.20;82.10;;;;;;6339784;22;19995;-77
2023/01/20 08:18:44;;;;;;;2.08;1.45;;;7.20;81.60;;;;;;6339448;22;20009;-77
2023/01/20 08:21:18;;;;;;;3.30;1.58;;;7.20;81.20;;;;;;6338399;22;19999;-78
2023/01/20 08:23:43;;;;;;;2.15;1.30;;;7.10;80.60;;;;;;6338858;22;20003;-81
2023/01/20 08:26:09;;;;;;;2.60;1.55;;;7.20;81.50;;;;;;6339571;22;20009;-82
2023/01/20 08:28:35;;;;;;;2.67;1.30;;;7.20;81.40;;;;;;6339361;22;20034;-81
2023/01/20 08:31:21;;;;;;;1.80;1.25;;;7.20;81.60;;;;;;6339956;22;20006;-82
2023/01/20 08:33:48;;;;;;;2.83;1.77;;;;;;;;;;6337894;22;20014;-82
2023/01/20 08:36:24;;;;;;;3.75;1.60;;;7.30;81.50;;;;;;6339086;22;19999;-83
2023/01/20 08:38:50;;;;;;;3.38;1.67;;;7.30;79.30;;;;;;6339481;22;20002;-81
2023/01/20 08:41:19;;;;;;;3.70;1.88;;;7.30;80.20;;;;;;6339372;22;20003;-81
2023/01/20 08:43:45;;;;;;;2.03;1.30;;;7.30;80.50;;;;;;6338869;22;20003;-81
2023/01/20 08:46:13;;;;;;;3.10;1.80;;;7.40;80.90;;;;;;6338875;22;20131;-82
2023/01/20 08:48:41;;;;;;;2.42;1.63;;;7.50;81.30;;;;;;6338618;22;20002;-82
2023/01/20 08:51:10;;;;;;;1.83;1.35;;;7.50;80.20;;;;;;6338719;22;20408;-82
2023/01/20 08:53:36;;;;;;;1.80;1.35;;;7.50;79.40;;;;;;6339253;22;19999;-82
2023/01/20 08:56:03;;;;;;;3.95;2.00;;;7.60;79.90;;;;;;6337358;22;20048;-81
2023/01/20 08:58:29;;;;;;;1.77;1.52;;;7.70;79.80;;;;;;6337499;22;19999;-82
2023/01/20 09:00:55;;;;;;;1.67;1.40;;;7.70;79.20;;;;;;6338470;22;20009;-82
2023/01/20 09:03:22;;;;;;;3.20;1.50;;;7.80;78.70;;;;;;6338218;22;20048;-82
2023/01/20 09:05:48;;;;;;;2.05;1.40;;;7.90;78.10;;;;;;6337732;22;20003;-82
2023/01/20 09:08:14;;;;;;;1.60;1.30;;;7.90;77.50;;;;;;6309630;22;20034;-82
2023/01/20 09:10:40;;;;;;;1.80;1.38;;;7.90;77.10;;;;;;6337894;22;20060;-83
2023/01/20 09:13:05;;;;;;;4.43;1.70;;;7.90;77.60;;;;;;6338305;22;20003;-83
2023/01/20 09:15:31;;;;;;;1.73;1.52;;;7.90;77.30;;;;;;6310737;22;20105;-84
2023/01/20 09:17:57;;;;;;;2.42;1.50;;;8.10;77.60;;;;;;6338147;22;20003;-84
2023/01/20 09:20:24;;;;;;;4.00;1.55;;;8.10;77.70;;;;;;6334678;22;20552;-84
2023/01/20 09:22:50;;;;;;;2.30;1.40;;;8.20;77.30;;;;;;6337019;22;20283;-84
2023/01/20 09:25:16;;;;;;;2.05;1.80;;;8.20;76.90;;;;;;6338688;22;20006;-84
2023/01/20 09:27:41;;;;;;;3.08;1.80;;;8.30;76.90;;;;;;6335793;22;20003;-83
2023/01/20 09:30:08;;;;;;;1.27;1.17;;;8.30;74.80;;;;;;6338439;22;20007;-83
2023/01/20 09:32:33;;;;;;;1.77;1.30;;;8.20;75.10;;;;;;6337844;22;20050;-84
2023/01/20 09:34:59;;;;;;;2.22;1.20;;;8.30;74.80;;;;;;6337786;22;20011;-82
2023/01/20 09:46:34;;;;;;;2.17;1.65;;;8.50;74.80;;;;;;6338254;22;20079;-83
2023/01/20 09:55:29;;;;;;;1.83;1.30;;;8.50;72.90;;;;;;6338793;22;20052;-81
2023/01/20 09:58:22;;;;;;;1.98;1.27;;;8.60;74.00;;;;;;6339251;22;19995;-81
2023/01/20 10:01:08;;;;;;;1.88;1.50;;;8.60;73.50;;;;;;6311356;22;20034;-83
2023/01/20 10:04:05;;;;;;;3.55;2.13;;;8.70;73.30;;;;;;6311796;22;20011;-83
2023/01/20 10:06:36;;;;;;;2.00;1.50;;;8.60;71.70;;;;;;6338711;22;19999;-80
2023/01/20 10:09:10;;;;;;;4.25;2.00;;;8.70;73.00;;;;;;6339548;22;20003;-79
2023/01/20 10:11:39;;;;;;;2.33;1.50;;;8.70;71.20;;;;;;6339188;22;20352;-79
2023/01/20 10:14:20;;;;;;;2.42;1.77;;;8.70;71.00;;;;;;6312057;22;20014;-84
2023/01/20 10:16:52;;;;;;;2.60;1.50;;;8.80;71.30;;;;;;6337070;22;19999;-86
2023/01/20 10:19:31;;;;;;;1.98;1.60;;;9.20;72.60;;;;;;6340733;22;19995;-89
2023/01/20 10:21:57;;;;;;;2.15;1.67;;;;;;;;;;6342931;22;20773;-89
2023/01/20 10:24:31;;;;;;;2.30;1.63;;;10.10;72.10;;;;;;6315518;22;20034;-90
2023/01/20 10:27:03;;;;;;;1.90;1.27;;;10.10;72.40;;;;;;6341153;22;19999;-85
2023/01/20 10:29:37;;;;;;;2.90;1.98;;;10.40;69.40;;;;;;6340574;22;20013;-84
2023/01/20 10:32:28;;;;;;;5.60;1.70;;;10.50;67.60;;;;;;6341258;22;20098;-80
2023/01/20 10:34:57;;;;;;;2.25;1.33;;;10.60;74.70;;;;;;6339900;22;20039;-84
2023/01/20 10:37:24;;;;;;;2.53;1.55;;;10.90;73.60;;;;;;6340708;22;20002;-80
2023/01/20 10:40:06;;;;;;;11.57;1.58;;;11.20;74.50;;;;;;6340404;22;20003;-79
2023/01/20 10:42:32;;;;;;;29.55;3.92;;;11.70;75.90;;;;;;6339947;22;20010;-80
2023/01/20 10:44:59;;;;;;;5.43;1.50;;;12.00;67.20;;;;;;6340357;22;20444;-84
2023/01/20 10:47:35;;;;;;;2.35;1.70;;;12.20;70.90;;;;;;6340399;22;20082;-84
2023/01/20 10:50:22;;;;;;;2.70;1.80;;;12.40;69.50;;;;;;6340207;22;20065;-83
2023/01/20 10:53:02;;;;;;;2.15;1.63;;;12.30;64.30;;;;;;6340213;22;20070;-83
2023/01/20 10:55:40;;;;;;;2.17;1.70;;;12.40;64.80;;;;;;6340372;22;20313;-84
2023/01/20 10:58:26;;;;;;;2.75;2.22;;;12.50;65.60;;;;;;6340506;22;20321;-83
2023/01/20 11:00:52;;;;;;;2.05;1.70;;;12.40;63.00;;;;;;6340025;22;20003;-83
2023/01/20 11:03:21;;;;;;;2.33;1.83;;;12.40;64.40;;;;;;6312701;22;20302;-83
2023/01/20 11:05:49;;;;;;;1.80;1.52;;;12.50;63.40;;;;;;6340405;22;20009;-83
2023/01/20 11:08:17;;;;;;;3.72;1.70;;;12.60;64.10;;;;;;6340550;22;20019;-84
2023/01/20 11:10:43;;;;;;;3.03;1.90;;;12.70;63.30;;;;;;6340348;22;20003;-84
2023/01/20 11:13:10;;;;;;;3.60;1.77;;;12.60;61.70;;;;;;6339933;22;20379;-85
2023/01/20 11:15:59;;;;;;;3.63;1.98;;;12.60;63.10;;;;;;6339756;22;19995;-84
2023/01/20 11:18:29;;;;;;;1.93;1.67;;;12.50;62.20;;;;;;6339637;22;20428;-85
2023/01/20 11:21:11;;;;;;;4.63;2.22;;;12.50;63.20;;;;;;6340032;22;20002;-82
2023/01/20 11:23:48;;;;;;;2.97;1.98;;;12.50;62.60;;;;;;6340106;22;20009;-83
2023/01/20 11:26:24;;;;;;;1.60;1.50;;;12.40;61.70;;;;;;6340312;22;19998;-83
2023/01/20 11:28:51;;;;;;;2.08;1.65;;;12.50;62.90;;;;;;6340569;22;20033;-83
2023/01/20 11:31:18;;;;;;;2.45;1.90;;;12.70;61.60;;;;;;6340089;22;20389;-83
2023/01/20 11:33:55;;;;;;;2.50;1.95;;;12.70;60.90;;;;;;6312561;22;20325;-84
2023/01/20 11:36:25;;;;;;;3.05;1.55;;;12.90;62.10;;;;;;6339784;22;19995;-83
2023/01/20 11:38:52;;;;;;;2.38;1.90;;;12.90;61.10;;;;;;6340048;22;20005;-83
2023/01/20 11:41:22;;;;;;;4.28;2.00;;;13.10;62.20;;;;;;6339533;22;20015;-83
2023/01/20 11:43:50;;;;;;;1.85;1.70;;;13.20;59.70;;;;;;6339580;22;20419;-84
2023/01/20 11:46:21;;;;;;;2.50;1.85;;;13.30;60.70;;;;;;6336414;22;20002;-85
2023/01/20 11:48:47;;;;;;;2.50;1.70;;;13.50;61.90;;;;;;6336557;22;20440;-84
2023/01/20 11:51:24;;;;;;;2.92;2.10;;;14.00;60.70;;;;;;6336686;22;20077;-84
2023/01/20 11:54:04;;;;;;;2.58;2.03;;;14.00;61.20;;;;;;6336590;22;20341;-84
2023/01/20 11:56:39;;;;;;;1.73;1.63;;;14.70;60.80;;;;;;6336475;22;20059;-84
2023/01/20 11:59:18;;;;;;;2.60;2.20;;;15.80;58.70;;;;;;6336037;22;20033;-84
2023/01/20 12:01:53;;;;;;;2.33;2.00;;;17.00;54.50;;;;;;6336205;22;20034;-84
2023/01/20 12:04:45;;;;;;;1.88;1.70;;;17.90;51.60;;;;;;6336670;22;20323;-85
2023/01/20 12:07:20;;;;;;;2.00;1.80;;;19.50;48.90;;;;;;6291577;22;20060;-85
2023/01/20 12:09:51;;;;;;;2.72;1.77;;;19.60;49.40;;;;;;6335894;22;20010;-85
2023/01/20 12:12:46;;;;;;;2.50;1.90;;;20.40;45.50;;;;;;6309313;22;20010;-85
2023/01/20 12:15:24;;;;;;;1.80;1.65;;;21.20;44.90;;;;;;6321538;22;20007;-84
2023/01/20 12:18:07;;;;;;;2.13;1.90;;;21.50;42.40;;;;;;6336863;22;20005;-84
2023/01/20 12:20:47;;;;;;;4.68;2.03;;;20.90;41.20;;;;;;6337015;22;20002;-84
2023/01/20 12:23:32;;;;;;;3.53;2.00;;;19.70;40.80;;;;;;6335504;22;20030;-84
2023/01/20 12:26:03;;;;;;;2.50;1.60;;;18.30;43.50;;;;;;6308896;22;20349;-84
2023/01/20 12:28:38;;;;;;;2.10;1.75;;;;;;;;;;6337304;22;20055;-84
2023/01/20 12:31:08;;;;;;;3.58;2.03;;;17.90;44.30;;;;;;6311996;22;20022;-84
2023/01/20 12:33:44;;;;;;;2.30;2.10;;;17.90;44.30;;;;;;6336621;22;20080;-85
2023/01/20 12:36:29;;;;;;;2.58;1.92;;;17.80;45.60;;;;;;6335512;22;20407;-84
2023/01/20 12:39:23;;;;;;;4.05;2.10;;;17.30;46.00;;;;;;6335870;22;20006;-83
2023/01/20 12:42:14;;;;;;;3.20;2.30;;;16.90;46.70;;;;;;6336078;22;20006;-84
2023/01/20 12:45:09;;;;;;;3.03;2.33;;;16.20;47.80;;;;;;6336254;22;20010;-84
2023/01/20 12:47:50;;;;;;;5.05;2.55;;;16.20;48.20;;;;;;6336032;22;20302;-84
2023/01/20 12:50:50;;;;;;;2.90;1.95;;;15.70;49.00;;;;;;6335887;22;20010;-83
2023/01/20 12:53:37;;;;;;;4.40;2.50;;;15.30;49.80;;;;;;6336455;22;20021;-84
2023/01/20 12:56:22;;;;;;;2.22;1.70;;;14.90;51.40;;;;;;6335960;22;20077;-84
2023/01/20 12:59:15;;;;;;;2.58;2.28;;;14.50;52.00;;;;;;6335781;22;20421;-82
2023/01/20 13:02:09;;;;;;;4.13;2.13;;;14.20;53.00;;;;;;6335724;22;20010;-82
2023/01/20 13:04:35;;;;;;;2.97;2.03;;;13.90;53.40;;;;;;6335738;22;20072;-82
2023/01/20 13:07:24;;;;;;;1.95;1.75;;;13.80;53.80;;;;;;6336225;22;20791;-82
2023/01/20 13:10:13;;;;;;;2.53;2.15;;;13.50;53.90;;;;;;6309630;22;20015;-81
2023/01/20 13:13:11;;;;;;;2.47;1.77;;;13.50;54.40;;;;;;6302455;22;20509;-81
2023/01/20 13:15:47;;;;;;;4.28;2.13;;;13.20;55.70;;;;;;6330928;22;20372;-82
2023/01/20 13:18:28;;;;;;;2.20;1.63;;;13.20;56.00;;;;;;6333993;22;20010;-80
2023/01/20 13:20:54;;;;;;;4.43;2.25;;;13.10;57.00;;;;;;6338728;22;19999;-80
2023/01/20 13:23:38;;;;;;;2.40;1.92;;;12.90;56.70;;;;;;6337684;22;20026;-81
2023/01/20 13:26:04;;;;;;;2.13;1.70;;;12.80;56.70;;;;;;6338411;22;20002;-81
2023/01/20 13:28:31;;;;;;;3.42;1.77;;;12.70;57.00;;;;;;6339142;22;20051;-81
2023/01/20 13:30:58;;;;;;;1.95;1.50;;;12.50;57.30;;;;;;6339035;22;20005;-76